createdAt,value
2022-11-18T00:01:13.243Z,8.80
2022-11-18T00:03:41.546Z,8.80
2022-11-18T00:06:12.458Z,9.50
2022-11-18T00:08:39.977Z,8.80
2022-11-18T00:11:09.752Z,8.80
2022-11-18T00:13:58.707Z,8.80
2022-11-18T00:16:26.158Z,8.80
2022-11-18T00:18:53.579Z,8.80
2022-11-18T00:21:21.038Z,8.80
2022-11-18T00:23:49.176Z,8.80
2022-11-18T00:26:16.860Z,8.80
2022-11-18T00:28:44.321Z,8.80
2022-11-18T00:31:13.705Z,8.80
2022-11-18T00:33:41.727Z,8.80
2022-11-18T00:36:11.580Z,8.70
2022-11-18T00:38:40.046Z,8.80
2022-11-18T00:41:13.168Z,8.70
2022-11-18T00:43:41.307Z,8.70
2022-11-18T00:46:10.476Z,8.70
2022-11-18T00:48:38.895Z,8.70
2022-11-18T00:51:11.097Z,8.70
2022-11-18T00:53:39.280Z,8.60
2022-11-18T00:56:07.472Z,8.60
2022-11-18T00:58:35.202Z,8.60
2022-11-18T01:01:04.318Z,8.50
2022-11-18T01:03:32.231Z,8.50
2022-11-18T01:05:59.834Z,8.50
2022-11-18T01:08:27.597Z,8.50
2022-11-18T01:10:55.175Z,8.50
2022-11-18T01:13:23.945Z,8.50
2022-11-18T01:15:54.569Z,8.50
2022-11-18T01:18:28.072Z,8.50
2022-11-18T01:21:00.512Z,8.50
2022-11-18T01:23:28.107Z,8.50
2022-11-18T01:25:55.772Z,8.50
2022-11-18T01:28:24.262Z,8.40
2022-11-18T01:30:51.905Z,8.40
2022-11-18T01:33:19.632Z,8.40
2022-11-18T01:35:47.067Z,8.40
2022-11-18T01:38:16.028Z,8.40
2022-11-18T01:40:43.482Z,8.40
2022-11-18T01:43:19.357Z,8.40
2022-11-18T01:45:49.389Z,8.40
2022-11-18T01:48:22.751Z,8.40
2022-11-18T01:51:00.509Z,8.50
2022-11-18T01:53:35.848Z,8.40
2022-11-18T01:56:15.875Z,8.50
2022-11-18T01:58:54.399Z,8.50
2022-11-18T02:01:22.055Z,8.50
2022-11-18T02:03:50.487Z,8.50
2022-11-18T02:06:18.619Z,8.50
2022-11-18T02:08:46.717Z,8.50
2022-11-18T02:11:33.844Z,8.50
2022-11-18T02:14:04.651Z,8.50
2022-11-18T02:16:42.902Z,8.50
2022-11-18T02:19:28.490Z,8.50
2022-11-18T02:22:11.135Z,8.50
2022-11-18T02:24:59.452Z,8.40
2022-11-18T02:27:57.603Z,8.40
2022-11-18T02:30:25.485Z,8.40
2022-11-18T02:33:00.092Z,8.40
2022-11-18T02:35:41.904Z,8.40
2022-11-18T02:38:19.922Z,8.30
2022-11-18T02:40:52.311Z,8.30
2022-11-18T02:43:35.781Z,8.30
2022-11-18T02:46:09.107Z,8.30
2022-11-18T02:48:44.741Z,8.30
2022-11-18T02:51:14.295Z,8.30
2022-11-18T02:53:43.324Z,8.30
2022-11-18T02:56:12.181Z,8.40
2022-11-18T02:58:39.672Z,8.30
2022-11-18T03:01:07.472Z,8.30
2022-11-18T03:03:36.668Z,8.30
2022-11-18T03:06:22.286Z,8.30
2022-11-18T03:09:17.440Z,8.30
2022-11-18T03:12:01.954Z,8.30
2022-11-18T03:14:39.706Z,8.20
2022-11-18T03:17:19.371Z,8.20
2022-11-18T03:19:49.707Z,8.20
2022-11-18T03:22:40.141Z,8.20
2022-11-18T03:25:25.871Z,8.20
2022-11-18T03:28:24.112Z,8.10
2022-11-18T03:30:56.006Z,8.10
2022-11-18T03:33:28.797Z,8.10
2022-11-18T03:35:57.508Z,8.10
2022-11-18T03:38:29.848Z,8.10
2022-11-18T03:41:02.302Z,8.10
2022-11-18T03:43:34.817Z,8.10
2022-11-18T03:46:08.918Z,8.10
2022-11-18T03:48:41.406Z,8.00
2022-11-18T03:51:13.043Z,8.40
2022-11-18T03:53:45.567Z,8.00
2022-11-18T03:56:18.183Z,8.00
2022-11-18T03:59:00.139Z,8.00
2022-11-18T04:02:01.772Z,8.00
2022-11-18T04:04:29.838Z,8.00
2022-11-18T04:07:25.644Z,8.00
2022-11-18T04:10:16.226Z,8.10
2022-11-18T04:12:55.252Z,8.10
2022-11-18T04:15:24.701Z,8.10
2022-11-18T04:17:52.207Z,8.10
2022-11-18T04:20:22.044Z,8.20
2022-11-18T04:22:49.606Z,8.20
2022-11-18T04:25:17.354Z,8.20
2022-11-18T04:27:44.831Z,8.20
2022-11-18T04:30:12.964Z,8.20
2022-11-18T04:32:40.437Z,8.20
2022-11-18T04:35:07.968Z,8.20
2022-11-18T04:37:35.687Z,8.10
2022-11-18T04:40:03.735Z,8.20
2022-11-18T04:42:31.247Z,8.20
2022-11-18T04:44:58.848Z,8.20
2022-11-18T04:47:26.287Z,8.20
2022-11-18T04:49:54.106Z,8.20
2022-11-18T04:52:21.626Z,8.10
2022-11-18T04:54:49.074Z,8.10
2022-11-18T04:57:16.543Z,8.10
2022-11-18T04:59:44.015Z,8.10
2022-11-18T05:02:11.478Z,8.10
2022-11-18T05:04:39.042Z,8.10
2022-11-18T05:07:07.941Z,8.10
2022-11-18T05:09:35.484Z,8.10
2022-11-18T05:12:21.586Z,8.20
2022-11-18T05:14:50.785Z,8.20
2022-11-18T05:17:19.102Z,8.20
2022-11-18T05:19:46.512Z,8.20
2022-11-18T05:22:14.785Z,8.30
2022-11-18T05:24:42.111Z,8.30
2022-11-18T05:27:09.608Z,8.30
2022-11-18T05:29:37.458Z,8.40
2022-11-18T05:32:05.426Z,8.40
2022-11-18T05:34:32.863Z,8.40
2022-11-18T05:37:00.695Z,8.90
2022-11-18T05:39:28.347Z,8.50
2022-11-18T05:42:14.292Z,8.50
2022-11-18T05:44:41.782Z,8.50
2022-11-18T05:47:09.334Z,8.50
2022-11-18T05:49:36.829Z,8.50
2022-11-18T05:52:04.908Z,8.50
2022-11-18T05:54:32.591Z,8.50
2022-11-18T05:57:00.269Z,8.50
2022-11-18T05:59:27.809Z,8.50
2022-11-18T06:02:02.587Z,8.50
2022-11-18T06:04:39.063Z,8.50
2022-11-18T06:07:15.211Z,8.50
2022-11-18T06:09:48.025Z,8.60
2022-11-18T06:12:18.926Z,8.50
2022-11-18T06:14:51.771Z,8.50
2022-11-18T06:17:25.123Z,8.50
2022-11-18T06:19:53.579Z,8.50
2022-11-18T06:22:21.433Z,8.60
2022-11-18T06:24:49.235Z,8.60
2022-11-18T06:27:17.082Z,9.20
2022-11-18T06:29:44.531Z,8.60
2022-11-18T06:32:12.103Z,8.50
2022-11-18T06:34:41.736Z,8.60
2022-11-18T06:37:18.205Z,8.50
2022-11-18T06:39:46.158Z,8.50
2022-11-18T06:42:36.537Z,8.50
2022-11-18T06:45:05.371Z,8.50
2022-11-18T06:47:32.932Z,8.50
2022-11-18T06:50:00.713Z,8.60
2022-11-18T06:52:28.160Z,8.50
2022-11-18T06:54:55.598Z,8.50
2022-11-18T06:57:23.067Z,10.20
2022-11-18T06:59:50.535Z,9.10
2022-11-18T07:02:19.092Z,9.00
2022-11-18T07:04:46.554Z,8.50
2022-11-18T07:07:14.301Z,8.40
2022-11-18T07:09:41.823Z,8.50
2022-11-18T07:12:09.330Z,8.50
2022-11-18T07:14:36.825Z,8.50
2022-11-18T07:17:04.286Z,8.50
2022-11-18T07:19:35.733Z,8.50
2022-11-18T07:22:08.031Z,8.50
2022-11-18T07:24:35.767Z,8.50
2022-11-18T07:27:03.511Z,9.00
2022-11-18T07:29:30.927Z,8.50
2022-11-18T07:31:58.414Z,8.50
2022-11-18T07:34:26.171Z,8.40
2022-11-18T07:36:53.577Z,8.30
2022-11-18T07:39:21.271Z,8.30
2022-11-18T07:41:48.966Z,8.20
2022-11-18T07:44:17.484Z,8.20
2022-11-18T07:46:45.460Z,8.10
2022-11-18T07:49:13.099Z,8.10
2022-11-18T07:51:40.931Z,8.10
2022-11-18T07:54:10.943Z,8.10
2022-11-18T07:56:38.992Z,8.90
2022-11-18T07:59:07.328Z,8.30
2022-11-18T08:01:37.956Z,8.10
2022-11-18T08:04:08.297Z,8.10
2022-11-18T08:06:36.551Z,8.20
2022-11-18T08:09:04.378Z,8.20
2022-11-18T08:11:32.035Z,8.30
2022-11-18T08:13:59.850Z,8.30
2022-11-18T08:16:27.951Z,8.30
2022-11-18T08:18:55.484Z,8.40
2022-11-18T08:21:23.650Z,8.50
2022-11-18T08:23:56.846Z,9.10
2022-11-18T08:26:25.091Z,8.60
2022-11-18T08:28:53.295Z,8.60
2022-11-18T08:31:31.106Z,8.60
2022-11-18T08:34:01.506Z,8.60
2022-11-18T08:36:30.827Z,8.50
2022-11-18T08:39:00.106Z,8.60
2022-11-18T08:41:41.760Z,8.60
2022-11-18T08:44:13.892Z,8.60
2022-11-18T08:46:42.530Z,8.70
2022-11-18T08:49:09.954Z,8.60
2022-11-18T08:51:37.747Z,8.60
2022-11-18T08:54:05.936Z,8.60
2022-11-18T08:56:33.222Z,8.70
2022-11-18T08:59:00.864Z,8.70
2022-11-18T09:01:28.342Z,8.80
2022-11-18T09:03:57.643Z,8.90
2022-11-18T09:06:25.444Z,9.40
2022-11-18T09:08:53.672Z,9.00
2022-11-18T09:11:25.090Z,9.40
2022-11-18T09:16:45.066Z,9.10
2022-11-18T09:19:45.144Z,9.40
2022-11-18T09:22:00.169Z,9.20
2022-11-18T09:24:27.603Z,9.20
2022-11-18T09:26:55.189Z,10.50
2022-11-18T09:29:25.981Z,10.00
2022-11-18T09:31:54.245Z,9.30
2022-11-18T09:34:22.511Z,9.20
2022-11-18T09:36:50.155Z,9.10
2022-11-18T09:39:19.043Z,10.20
2022-11-18T09:41:53.094Z,9.00
2022-11-18T09:44:53.534Z,9.10
2022-11-18T09:47:32.560Z,9.00
2022-11-18T09:50:34.040Z,9.00
2022-11-18T09:53:09.815Z,9.00
2022-11-18T09:55:39.701Z,9.00
2022-11-18T09:58:07.991Z,10.20
2022-11-18T10:00:35.363Z,9.00
2022-11-18T10:03:02.988Z,9.10
2022-11-18T10:05:42.739Z,9.00
2022-11-18T10:08:28.031Z,9.40
2022-11-18T10:11:10.371Z,9.00
2022-11-18T10:14:09.327Z,9.00
2022-11-18T10:17:04.941Z,9.00
2022-11-18T10:19:43.732Z,9.00
2022-11-18T10:22:31.912Z,9.00
2022-11-18T10:25:00.872Z,9.00
2022-11-18T10:27:39.204Z,9.10
2022-11-18T10:30:26.535Z,9.10
2022-11-18T10:33:17.440Z,9.20
2022-11-18T10:35:44.970Z,9.20
2022-11-18T10:38:15.483Z,9.20
2022-11-18T10:40:50.326Z,9.60
2022-11-18T10:43:51.492Z,9.20
2022-11-18T10:46:31.716Z,9.20
2022-11-18T10:49:11.311Z,9.30
2022-11-18T10:51:44.441Z,9.40
2022-11-18T10:54:18.404Z,9.80
2022-11-18T10:57:05.978Z,10.60
2022-11-18T10:59:42.127Z,10.50
2022-11-18T11:02:35.416Z,9.40
2022-11-18T11:05:16.097Z,9.40
2022-11-18T11:07:43.745Z,9.40
2022-11-18T11:10:11.175Z,10.10
2022-11-18T11:12:48.422Z,10.00
2022-11-18T11:15:27.633Z,9.50
2022-11-18T11:18:19.262Z,9.50
2022-11-18T11:20:47.102Z,9.60
2022-11-18T11:23:20.538Z,9.60
2022-11-18T11:29:13.358Z,9.70
2022-11-18T11:32:00.097Z,10.20
2022-11-18T11:34:32.877Z,9.80
2022-11-18T11:37:09.503Z,10.30
2022-11-18T11:39:47.373Z,9.80
2022-11-18T11:42:24.267Z,9.90
2022-11-18T11:45:19.229Z,9.90
2022-11-18T11:48:05.286Z,10.00
2022-11-18T11:51:03.392Z,10.00
2022-11-18T11:54:26.619Z,10.00
2022-11-18T11:57:04.601Z,10.10
2022-11-18T11:59:46.045Z,10.20
2022-11-18T12:02:25.387Z,10.70
2022-11-18T12:05:10.232Z,10.20
2022-11-18T12:08:06.637Z,10.30
2022-11-18T12:10:51.134Z,10.30
2022-11-18T12:13:53.418Z,10.50
2022-11-18T12:16:54.118Z,10.40
2022-11-18T12:19:23.343Z,10.50
2022-11-18T12:21:54.599Z,10.50
2022-11-18T12:24:40.977Z,10.60
2022-11-18T12:27:37.056Z,10.70
2022-11-18T12:30:04.999Z,10.70
2022-11-18T12:32:46.738Z,10.70
2022-11-18T12:35:27.682Z,10.80
2022-11-18T12:37:55.073Z,10.80
2022-11-18T12:40:39.235Z,11.10
2022-11-18T12:43:47.585Z,10.90
2022-11-18T12:46:27.197Z,11.60
2022-11-18T12:48:54.642Z,10.90
2022-11-18T12:51:22.005Z,10.90
2022-11-18T12:53:51.440Z,10.90
2022-11-18T12:56:28.348Z,10.90
2022-11-18T12:59:00.304Z,10.90
2022-11-18T13:01:34.431Z,11.00
2022-11-18T13:04:08.761Z,11.10
2022-11-18T13:06:38.895Z,11.20
2022-11-18T13:09:16.229Z,11.30
2022-11-18T13:11:52.875Z,11.50
2022-11-18T13:14:54.201Z,11.50
2022-11-18T13:17:51.872Z,11.60
2022-11-18T13:20:24.040Z,11.70
2022-11-18T13:23:15.335Z,11.70
2022-11-18T13:25:48.160Z,11.80
2022-11-18T13:28:56.761Z,11.90
2022-11-18T13:31:43.153Z,11.90
2022-11-18T13:34:20.401Z,12.00
2022-11-18T13:36:50.259Z,12.00
2022-11-18T13:39:29.375Z,11.90
2022-11-18T13:42:05.450Z,11.90
2022-11-18T13:44:35.247Z,11.80
2022-11-18T13:47:21.260Z,11.80
2022-11-18T13:50:05.402Z,11.90
2022-11-18T13:53:06.665Z,11.80
2022-11-18T13:55:44.082Z,11.90
2022-11-18T13:58:55.618Z,11.90
2022-11-18T14:01:28.696Z,11.90
2022-11-18T14:03:59.438Z,11.90
2022-11-18T14:06:31.805Z,11.90
2022-11-18T14:09:20.225Z,11.80
2022-11-18T14:12:13.683Z,11.80
2022-11-18T14:14:43.115Z,11.80
2022-11-18T14:17:22.924Z,11.80
2022-11-18T14:19:58.861Z,11.80
2022-11-18T14:22:27.733Z,11.70
2022-11-18T14:25:02.499Z,11.70
2022-11-18T14:27:39.201Z,11.70
2022-11-18T14:30:32.707Z,11.50
2022-11-18T14:33:06.357Z,11.60
2022-11-18T14:35:35.083Z,11.50
2022-11-18T14:41:01.740Z,11.80
2022-11-18T14:43:31.241Z,11.40
2022-11-18T14:46:04.512Z,11.40
2022-11-18T14:48:32.852Z,12.20
2022-11-18T14:51:00.882Z,11.60
2022-11-18T14:53:28.426Z,11.30
2022-11-18T14:56:00.198Z,11.30
2022-11-18T14:58:27.765Z,11.30
2022-11-18T15:00:55.314Z,11.20
2022-11-18T15:03:23.078Z,11.20
2022-11-18T15:05:50.662Z,11.20
2022-11-18T15:08:18.073Z,11.40
2022-11-18T15:13:39.428Z,12.10
2022-11-18T15:16:18.024Z,11.10
2022-11-18T15:18:47.895Z,11.10
2022-11-18T15:21:21.937Z,11.10
2022-11-18T15:23:49.921Z,11.10
2022-11-18T15:26:22.029Z,11.10
2022-11-18T15:28:51.530Z,11.00
2022-11-18T15:31:22.368Z,11.10
2022-11-18T15:33:51.167Z,11.50
2022-11-18T15:36:25.802Z,11.00
2022-11-18T15:38:55.072Z,12.70
2022-11-18T15:41:25.551Z,11.40
2022-11-18T15:43:54.811Z,10.90
2022-11-18T15:46:24.224Z,10.90
2022-11-18T15:48:55.652Z,10.90
2022-11-18T15:51:24.883Z,10.90
2022-11-18T15:53:52.573Z,10.90
2022-11-18T15:56:23.039Z,11.80
2022-11-18T15:58:57.121Z,10.80
2022-11-18T16:01:27.223Z,10.80
2022-11-18T16:03:55.403Z,10.80
2022-11-18T16:06:23.856Z,10.80
2022-11-18T16:08:57.514Z,10.70
2022-11-18T16:11:45.381Z,11.20
2022-11-18T16:14:14.593Z,10.70
2022-11-18T16:16:43.482Z,10.70
2022-11-18T16:19:14.317Z,10.80
2022-11-18T16:21:47.285Z,10.60
2022-11-18T16:24:17.989Z,10.60
2022-11-18T16:26:46.163Z,10.60
2022-11-18T16:29:15.912Z,10.60
2022-11-18T16:31:44.577Z,10.60
2022-11-18T16:34:26.743Z,10.60
2022-11-18T16:36:56.605Z,10.50
2022-11-18T16:39:26.423Z,10.50
2022-11-18T16:42:06.719Z,10.70
2022-11-18T16:44:35.724Z,11.70
2022-11-18T16:47:07.763Z,10.50
2022-11-18T16:49:40.153Z,10.50
2022-11-18T16:52:08.577Z,10.50
2022-11-18T16:54:41.061Z,10.50
2022-11-18T16:57:12.058Z,10.40
2022-11-18T16:59:39.500Z,10.40
2022-11-18T17:02:07.314Z,10.40
2022-11-18T17:04:37.110Z,11.30
2022-11-18T17:07:05.277Z,10.40
2022-11-18T17:09:32.675Z,10.40
2022-11-18T17:12:00.422Z,10.50
2022-11-18T17:14:29.311Z,10.50
2022-11-18T17:16:56.829Z,11.20
2022-11-18T17:19:27.025Z,10.50
2022-11-18T17:21:54.422Z,10.40
2022-11-18T17:24:23.676Z,10.60
2022-11-18T17:26:52.227Z,10.40
2022-11-18T17:29:20.669Z,10.40
2022-11-18T17:31:48.585Z,10.40
2022-11-18T17:34:16.847Z,10.40
2022-11-18T17:36:44.737Z,10.40
2022-11-18T17:39:13.259Z,10.40
2022-11-18T17:41:59.492Z,10.40
2022-11-18T17:44:28.063Z,10.40
2022-11-18T17:46:55.790Z,10.40
2022-11-18T17:49:23.705Z,10.40
2022-11-18T17:51:51.654Z,10.40
2022-11-18T17:54:20.630Z,10.30
2022-11-18T17:56:48.714Z,10.30
2022-11-18T17:59:17.466Z,10.30
2022-11-18T18:01:48.054Z,10.40
2022-11-18T18:04:20.680Z,10.60
2022-11-18T18:06:51.129Z,10.30
2022-11-18T18:09:21.841Z,10.30
2022-11-18T18:11:52.757Z,10.30
2022-11-18T18:14:20.884Z,10.40
2022-11-18T18:16:51.483Z,10.80
2022-11-18T18:19:21.585Z,10.30
2022-11-18T18:21:49.292Z,10.30
2022-11-18T18:24:19.587Z,10.30
2022-11-18T18:26:47.756Z,10.70
2022-11-18T18:29:15.508Z,10.20
2022-11-18T18:31:42.882Z,10.30
2022-11-18T18:34:10.515Z,10.20
2022-11-18T18:36:38.216Z,10.60
2022-11-18T18:39:05.790Z,10.80
2022-11-18T18:41:33.374Z,11.20
2022-11-18T18:44:01.301Z,10.30
2022-11-18T18:46:30.119Z,10.20
2022-11-18T18:49:20.483Z,10.20
2022-11-18T18:51:49.432Z,10.80
2022-11-18T18:54:19.366Z,10.80
2022-11-18T18:56:47.048Z,10.60
2022-11-18T18:59:14.463Z,10.10
2022-11-18T19:01:41.970Z,11.00
2022-11-18T19:04:12.364Z,10.00
2022-11-18T19:06:52.020Z,10.20
2022-11-18T19:09:26.020Z,10.00
2022-11-18T19:12:13.089Z,10.00
2022-11-18T19:14:41.062Z,10.90
2022-11-18T19:17:11.616Z,10.00
2022-11-18T19:20:01.637Z,10.30
2022-11-18T19:22:31.245Z,10.00
2022-11-18T19:24:59.812Z,10.40
2022-11-18T19:27:28.650Z,10.00
2022-11-18T19:29:56.069Z,9.90
2022-11-18T19:32:24.699Z,9.90
2022-11-18T19:34:52.212Z,9.90
2022-11-18T19:37:19.635Z,9.90
2022-11-18T19:39:47.259Z,9.90
2022-11-18T19:42:14.949Z,9.80
2022-11-18T19:44:42.571Z,9.90
2022-11-18T19:47:10.250Z,9.90
2022-11-18T19:49:37.954Z,9.80
2022-11-18T19:52:05.600Z,9.80
2022-11-18T19:54:33.434Z,10.10
2022-11-18T19:57:03.660Z,9.80
2022-11-18T19:59:31.182Z,9.80
2022-11-18T20:01:58.582Z,9.80
2022-11-18T20:04:26.279Z,9.90
2022-11-18T20:06:53.785Z,9.80
2022-11-18T20:09:21.642Z,9.80
2022-11-18T20:11:49.332Z,9.80
2022-11-18T20:14:17.472Z,9.80
2022-11-18T20:16:44.844Z,9.70
2022-11-18T20:19:13.626Z,9.80
2022-11-18T20:21:44.817Z,10.70
2022-11-18T20:24:17.250Z,9.70
2022-11-18T20:26:45.302Z,9.70
2022-11-18T20:29:13.479Z,9.70
2022-11-18T20:31:41.365Z,9.70
2022-11-18T20:34:12.237Z,9.70
2022-11-18T20:36:39.922Z,9.70
2022-11-18T20:39:12.787Z,10.80
2022-11-18T20:41:40.273Z,9.60
2022-11-18T20:44:08.038Z,10.40
2022-11-18T20:46:35.637Z,9.60
2022-11-18T20:49:03.248Z,9.60
2022-11-18T20:51:30.646Z,10.20
2022-11-18T20:54:00.071Z,9.70
2022-11-18T20:56:28.167Z,9.60
2022-11-18T20:58:58.560Z,10.40
2022-11-18T21:01:28.628Z,9.60
2022-11-18T21:03:58.516Z,9.60
2022-11-18T21:06:28.976Z,9.50
2022-11-18T21:08:58.554Z,9.50
2022-11-18T21:11:26.969Z,9.50
2022-11-18T21:14:15.998Z,9.50
2022-11-18T21:16:46.323Z,9.50
2022-11-18T21:19:14.394Z,9.40
2022-11-18T21:21:45.066Z,9.40
2022-11-18T21:24:14.703Z,9.40
2022-11-18T21:26:43.176Z,9.40
2022-11-18T21:29:12.339Z,9.40
2022-11-18T21:31:40.702Z,9.40
2022-11-18T21:34:08.540Z,9.40
2022-11-18T21:36:40.075Z,10.90
2022-11-18T21:39:12.083Z,9.40
2022-11-18T21:41:39.982Z,9.80
2022-11-18T21:44:09.523Z,9.30
2022-11-18T21:46:38.799Z,10.60
2022-11-18T21:49:07.182Z,9.60
2022-11-18T21:51:35.769Z,9.30
2022-11-18T21:54:03.635Z,9.30
2022-11-18T21:56:31.994Z,9.30
2022-11-18T21:59:01.306Z,9.30
2022-11-18T22:01:31.403Z,9.30
2022-11-18T22:04:01.360Z,9.30
2022-11-18T22:06:31.426Z,10.70
2022-11-18T22:08:59.524Z,9.30
2022-11-18T22:11:28.098Z,9.30
2022-11-18T22:13:55.651Z,9.30
2022-11-18T22:16:24.953Z,11.10
2022-11-18T22:18:59.086Z,9.90
2022-11-18T22:21:28.803Z,9.30
2022-11-18T22:24:00.761Z,10.60
2022-11-18T22:26:29.004Z,9.30
2022-11-18T22:28:58.017Z,10.30
2022-11-18T22:31:27.317Z,9.30
2022-11-18T22:33:55.989Z,9.30
2022-11-18T22:36:25.445Z,9.30
2022-11-18T22:38:53.463Z,9.30
2022-11-18T22:41:46.945Z,9.20
2022-11-18T22:44:16.446Z,9.20
2022-11-18T22:46:45.242Z,9.20
2022-11-18T22:49:13.797Z,9.10
2022-11-18T22:51:41.459Z,9.20
2022-11-18T22:54:37.001Z,9.10
2022-11-18T22:56:57.137Z,9.10
2022-11-18T22:59:25.251Z,9.20
2022-11-18T23:01:53.069Z,9.10
2022-11-18T23:04:20.562Z,9.10
2022-11-18T23:06:49.376Z,9.10
2022-11-18T23:09:17.381Z,9.00
2022-11-18T23:12:03.679Z,9.10
2022-11-18T23:14:31.431Z,9.00
2022-11-18T23:16:59.454Z,9.30
2022-11-18T23:19:26.958Z,9.00
2022-11-18T23:21:54.218Z,9.00
2022-11-18T23:24:22.009Z,9.00
2022-11-18T23:26:49.458Z,8.90
2022-11-18T23:29:17.443Z,8.90
2022-11-18T23:31:45.637Z,8.90
2022-11-18T23:34:14.944Z,8.90
2022-11-18T23:36:43.487Z,8.90
2022-11-18T23:39:11.249Z,8.90
2022-11-18T23:41:39.531Z,8.90
2022-11-18T23:44:06.879Z,8.90
2022-11-18T23:46:34.862Z,8.90
2022-11-18T23:49:02.241Z,8.90
2022-11-18T23:51:29.615Z,8.90
2022-11-18T23:53:57.827Z,8.90
2022-11-18T23:56:26.030Z,8.80
2022-11-18T23:58:56.338Z,8.90
